^^
Saratoga-Weather Station Historical Data
Daily Summary for January 7, 2021 Units:  Both    English   Metric
Daily Weekly Monthly Yearly Custom
  High: Low: Average:
Temperature: 82.6 °F /  28.1 °C 58.6 °F /  14.8 °C 69.3 °F /  20.7 °C
Dew Point: 62.6 °F /  17 °C 55.8 °F /  13.2 °C 58.5 °F /  14.7 °C
Humidity: 93% 41% 71%
Wind Speed: 6mph /  9.7km/h - 0.7mph /  1.2km/h
Wind Gust: 10mph /  16.1km/h - -
Wind- - SE
Pressure: 30.2 in /  1022.4 hPa 30.1 in /  1018.3 hPa -
Precipitation: 0 in /  0.0 mm    
Historical Graphs
 
 
Tabular Data for January 7, 2021
Time Temperature Dew Point Pressure Wind Wind Speed Wind Gust Humidity Rainfall Rate (Hourly) solar
00:04 64.8 °F /  18.2 °C 58.1 °F /  14.5 °C 30.2in /  1022.4hPa WSW 0.9mph /  1.4km/h 2mph /  3.2km/h 79% 0in /  0.0mm 0 W/m2
00:09 65.1 °F /  18.4 °C 58.1 °F /  14.5 °C 30.2in /  1022.4hPa Calm   2mph /  3.2km/h 78% 0in /  0.0mm 0 W/m2
00:14 65.3 °F /  18.5 °C 58.3 °F /  14.6 °C 30.2in /  1022.4hPa Calm   1mph /  1.6km/h 78% 0in /  0.0mm 0 W/m2
00:19 65.5 °F /  18.6 °C 58.1 °F /  14.5 °C 30.2in /  1022.4hPa South 0.9mph /  1.4km/h 2mph /  3.2km/h 77% 0in /  0.0mm 0 W/m2
00:25 65.5 °F /  18.6 °C 58.1 °F /  14.5 °C 30.2in /  1022.4hPa Calm   5mph /  8km/h 77% 0in /  0.0mm 0 W/m2
00:30 65.7 °F /  18.7 °C 58.3 °F /  14.6 °C 30.2in /  1022.4hPa WSW 0.9mph /  1.4km/h 2mph /  3.2km/h 77% 0in /  0.0mm 0 W/m2
00:35 65.7 °F /  18.7 °C 58.3 °F /  14.6 °C 30.2in /  1022.4hPa Calm   3mph /  4.8km/h 77% 0in /  0.0mm 0 W/m2
00:40 65.5 °F /  18.6 °C 58.5 °F /  14.7 °C 30.2in /  1022.4hPa Calm   1mph /  1.6km/h 78% 0in /  0.0mm 0 W/m2
00:45 65.1 °F /  18.4 °C 58.1 °F /  14.5 °C 30.2in /  1022.4hPa WSW 0.9mph /  1.4km/h 1mph /  1.6km/h 78% 0in /  0.0mm 0 W/m2
00:50 64.9 °F /  18.3 °C 58.3 °F /  14.6 °C 30.2in /  1022.4hPa Calm   3mph /  4.8km/h 79% 0in /  0.0mm 0 W/m2
00:55 64.8 °F /  18.2 °C 58.1 °F /  14.5 °C 30.2in /  1022.4hPa Calm     79% 0in /  0.0mm 0 W/m2
01:00 64.8 °F /  18.2 °C 58.5 °F /  14.7 °C 30.2in /  1022.4hPa Calm   3mph /  4.8km/h 80% 0in /  0.0mm 0 W/m2
01:05 64.9 °F /  18.3 °C 58.3 °F /  14.6 °C 30.2in /  1022.4hPa Calm     79% 0in /  0.0mm 0 W/m2
01:10 64.9 °F /  18.3 °C 58.6 °F /  14.8 °C 30.2in /  1022.4hPa Calm     80% 0in /  0.0mm 0 W/m2
01:15 64.9 °F /  18.3 °C 58.6 °F /  14.8 °C 30.2in /  1022.4hPa Calm     80% 0in /  0.0mm 0 W/m2
01:20 64.8 °F /  18.2 °C 58.5 °F /  14.7 °C 30.2in /  1022.4hPa Calm     80% 0in /  0.0mm 0 W/m2
01:25 64.8 °F /  18.2 °C 58.5 °F /  14.7 °C 30.2in /  1022.4hPa Calm     80% 0in /  0.0mm 0 W/m2
01:30 64.6 °F /  18.1 °C 58.6 °F /  14.8 °C 30.2in /  1022.4hPa Calm     81% 0in /  0.0mm 0 W/m2
01:35 64.4 °F /  18 °C 58.5 °F /  14.7 °C 30.2in /  1022.4hPa Calm     81% 0in /  0.0mm 0 W/m2
01:40 64.2 °F /  17.9 °C 58.6 °F /  14.8 °C 30.2in /  1022.4hPa Calm     82% 0in /  0.0mm 0 W/m2
01:45 64.2 °F /  17.9 °C 58.6 °F /  14.8 °C 30.2in /  1022.4hPa Calm     82% 0in /  0.0mm 0 W/m2
01:50 64.2 °F /  17.9 °C 58.6 °F /  14.8 °C 30.2in /  1022.4hPa Calm     82% 0in /  0.0mm 0 W/m2
01:55 64 °F /  17.8 °C 58.5 °F /  14.7 °C 30.2in /  1022.4hPa Calm     82% 0in /  0.0mm 0 W/m2
02:00 63.9 °F /  17.7 °C 58.3 °F /  14.6 °C 30.2in /  1022.4hPa Calm     82% 0in /  0.0mm 0 W/m2
02:05 63.9 °F /  17.7 °C 58.6 °F /  14.8 °C 30.2in /  1022.0hPa Calm     83% 0in /  0.0mm 0 W/m2
02:10 63.5 °F /  17.5 °C 58.3 °F /  14.6 °C 30.2in /  1022.0hPa Calm   2mph /  3.2km/h 83% 0in /  0.0mm 0 W/m2
02:15 63.3 °F /  17.4 °C 58.5 °F /  14.7 °C 30.2in /  1022.0hPa Calm     84% 0in /  0.0mm 0 W/m2
02:20 63.1 °F /  17.3 °C 58.3 °F /  14.6 °C 30.2in /  1022.0hPa Calm     84% 0in /  0.0mm 0 W/m2
02:25 63 °F /  17.2 °C 58.1 °F /  14.5 °C 30.2in /  1022.0hPa Calm     84% 0in /  0.0mm 0 W/m2
02:30 62.6 °F /  17 °C 58.1 °F /  14.5 °C 30.2in /  1022.0hPa Calm     85% 0in /  0.0mm 0 W/m2
02:35 62.4 °F /  16.9 °C 57.9 °F /  14.4 °C 30.2in /  1022.0hPa SW 2mph /  3.2km/h 3mph /  4.8km/h 85% 0in /  0.0mm 0 W/m2
02:40 62.2 °F /  16.8 °C 57.9 °F /  14.4 °C 30.2in /  1022.0hPa Calm     86% 0in /  0.0mm 0 W/m2
02:45 62.2 °F /  16.8 °C 57.9 °F /  14.4 °C 30.2in /  1022.0hPa Calm   3mph /  4.8km/h 86% 0in /  0.0mm 0 W/m2
02:50 62.1 °F /  16.7 °C 57.7 °F /  14.3 °C 30.2in /  1022.0hPa Calm     86% 0in /  0.0mm 0 W/m2
02:55 62.1 °F /  16.7 °C 57.7 °F /  14.3 °C 30.2in /  1022.0hPa Calm     86% 0in /  0.0mm 0 W/m2
03:00 61.9 °F /  16.6 °C 57.9 °F /  14.4 °C 30.2in /  1022.0hPa Calm   2mph /  3.2km/h 87% 0in /  0.0mm 0 W/m2
03:05 61.7 °F /  16.5 °C 57.7 °F /  14.3 °C 30.2in /  1021.7hPa Calm     87% 0in /  0.0mm 0 W/m2
03:10 61.7 °F /  16.5 °C 57.7 °F /  14.3 °C 30.2in /  1021.7hPa Calm     87% 0in /  0.0mm 0 W/m2
03:15 61.5 °F /  16.4 °C 57.9 °F /  14.4 °C 30.2in /  1021.7hPa SW 0.9mph /  1.4km/h 2mph /  3.2km/h 88% 0in /  0.0mm 0 W/m2
03:20 61.3 °F /  16.3 °C 57.7 °F /  14.3 °C 30.2in /  1021.7hPa Calm   1mph /  1.6km/h 88% 0in /  0.0mm 0 W/m2
03:26 61.2 °F /  16.2 °C 57.6 °F /  14.2 °C 30.2in /  1021.7hPa Calm   2mph /  3.2km/h 88% 0in /  0.0mm 0 W/m2
03:31 61 °F /  16.1 °C 57.4 °F /  14.1 °C 30.2in /  1021.7hPa Calm     88% 0in /  0.0mm 0 W/m2
03:36 60.8 °F /  16 °C 57.6 °F /  14.2 °C 30.2in /  1021.7hPa Calm     89% 0in /  0.0mm 0 W/m2
03:41 60.6 °F /  15.9 °C 57.4 °F /  14.1 °C 30.2in /  1021.7hPa Calm     89% 0in /  0.0mm 0 W/m2
03:46 60.4 °F /  15.8 °C 57.2 °F /  14 °C 30.2in /  1021.3hPa Calm     89% 0in /  0.0mm 0 W/m2
03:51 60.4 °F /  15.8 °C 57.2 °F /  14 °C 30.2in /  1021.3hPa Calm     89% 0in /  0.0mm 0 W/m2
03:56 60.3 °F /  15.7 °C 57 °F /  13.9 °C 30.2in /  1021.3hPa Calm     89% 0in /  0.0mm 0 W/m2
04:01 60.3 °F /  15.7 °C 57 °F /  13.9 °C 30.2in /  1021.7hPa Calm     89% 0in /  0.0mm 0 W/m2
04:06 60.1 °F /  15.6 °C 57.2 °F /  14 °C 30.2in /  1021.7hPa Calm     90% 0in /  0.0mm 0 W/m2
04:11 60.1 °F /  15.6 °C 57.2 °F /  14 °C 30.2in /  1021.7hPa Calm     90% 0in /  0.0mm 0 W/m2
04:16 59.9 °F /  15.5 °C 57 °F /  13.9 °C 30.2in /  1021.7hPa Calm     90% 0in /  0.0mm 0 W/m2
04:21 59.7 °F /  15.4 °C 56.8 °F /  13.8 °C 30.2in /  1021.7hPa Calm     90% 0in /  0.0mm 0 W/m2
04:26 59.7 °F /  15.4 °C 56.8 °F /  13.8 °C 30.2in /  1021.7hPa Calm     90% 0in /  0.0mm 0 W/m2
04:31 59.5 °F /  15.3 °C 56.7 °F /  13.7 °C 30.2in /  1021.7hPa Calm     90% 0in /  0.0mm 0 W/m2
04:36 59.5 °F /  15.3 °C 56.7 °F /  13.7 °C 30.2in /  1021.7hPa Calm     90% 0in /  0.0mm 0 W/m2
04:41 59.4 °F /  15.2 °C 56.7 °F /  13.7 °C 30.2in /  1021.7hPa Calm     91% 0in /  0.0mm 0 W/m2
04:46 59.4 °F /  15.2 °C 57 °F /  13.9 °C 30.2in /  1021.7hPa Calm     92% 0in /  0.0mm 0 W/m2
04:51 59.4 °F /  15.2 °C 57 °F /  13.9 °C 30.2in /  1021.7hPa Calm     92% 0in /  0.0mm 0 W/m2
04:56 59.4 °F /  15.2 °C 56.7 °F /  13.7 °C 30.2in /  1021.7hPa Calm     91% 0in /  0.0mm 0 W/m2
05:01 59.4 °F /  15.2 °C 57 °F /  13.9 °C 30.2in /  1021.7hPa Calm     92% 0in /  0.0mm 0 W/m2
05:06 59.2 °F /  15.1 °C 56.8 °F /  13.8 °C 30.2in /  1021.3hPa Calm     92% 0in /  0.0mm 0 W/m2
05:11 59 °F /  15 °C 56.7 °F /  13.7 °C 30.2in /  1021.3hPa Calm     92% 0in /  0.0mm 0 W/m2
05:16 58.8 °F /  14.9 °C 56.5 °F /  13.6 °C 30.2in /  1021.3hPa Calm     92% 0in /  0.0mm 0 W/m2
05:21 58.6 °F /  14.8 °C 56.3 °F /  13.5 °C 30.2in /  1021.3hPa Calm     92% 0in /  0.0mm 0 W/m2
05:26 58.6 °F /  14.8 °C 56.3 °F /  13.5 °C 30.2in /  1021.3hPa SW 0.9mph /  1.4km/h 2mph /  3.2km/h 92% 0in /  0.0mm 0 W/m2
05:31 58.6 °F /  14.8 °C 56.3 °F /  13.5 °C 30.2in /  1021.3hPa Calm   1mph /  1.6km/h 92% 0in /  0.0mm 0 W/m2
05:36 58.6 °F /  14.8 °C 56.7 °F /  13.7 °C 30.2in /  1021.3hPa Calm     93% 0in /  0.0mm 0 W/m2
05:41 58.8 °F /  14.9 °C 56.8 °F /  13.8 °C 30.2in /  1021.3hPa Calm   1mph /  1.6km/h 93% 0in /  0.0mm 0 W/m2
05:46 58.8 °F /  14.9 °C 56.8 °F /  13.8 °C 30.2in /  1021.3hPa Calm     93% 0in /  0.0mm 0 W/m2
05:51 59 °F /  15 °C 57 °F /  13.9 °C 30.2in /  1021.3hPa SW 2mph /  3.2km/h 2mph /  3.2km/h 93% 0in /  0.0mm 0 W/m2
05:56 59.4 °F /  15.2 °C 57.4 °F /  14.1 °C 30.2in /  1021.3hPa Calm     93% 0in /  0.0mm 0 W/m2
06:01 59.5 °F /  15.3 °C 57.6 °F /  14.2 °C 30.2in /  1021.3hPa Calm   1mph /  1.6km/h 93% 0in /  0.0mm 0 W/m2
06:06 59.7 °F /  15.4 °C 57.4 °F /  14.1 °C 30.2in /  1021.3hPa WSW 2mph /  3.2km/h 2mph /  3.2km/h 92% 0in /  0.0mm 0 W/m2
06:11 60.1 °F /  15.6 °C 57.7 °F /  14.3 °C 30.2in /  1021.3hPa South 0.9mph /  1.4km/h 1mph /  1.6km/h 92% 0in /  0.0mm 0 W/m2
06:16 60.3 °F /  15.7 °C 57.6 °F /  14.2 °C 30.2in /  1021.3hPa South 0.9mph /  1.4km/h 2mph /  3.2km/h 91% 0in /  0.0mm 0 W/m2
06:21 60.4 °F /  15.8 °C 57.7 °F /  14.3 °C 30.2in /  1021.3hPa SW 0.9mph /  1.4km/h 2mph /  3.2km/h 91% 0in /  0.0mm 0 W/m2
06:26 60.4 °F /  15.8 °C 57.6 °F /  14.2 °C 30.2in /  1021.3hPa Calm   2mph /  3.2km/h 90% 0in /  0.0mm 0 W/m2
06:31 60.6 °F /  15.9 °C 57.7 °F /  14.3 °C 30.2in /  1021.3hPa Calm   1mph /  1.6km/h 90% 0in /  0.0mm 0 W/m2
06:36 60.6 °F /  15.9 °C 57.7 °F /  14.3 °C 30.2in /  1021.3hPa Calm   1mph /  1.6km/h 90% 0in /  0.0mm 0 W/m2
06:41 60.8 °F /  16 °C 57.6 °F /  14.2 °C 30.2in /  1021.3hPa Calm   1mph /  1.6km/h 89% 0in /  0.0mm 0 W/m2
06:46 60.8 °F /  16 °C 57.6 °F /  14.2 °C 30.2in /  1021.3hPa Calm     89% 0in /  0.0mm 0 W/m2
06:51 60.6 °F /  15.9 °C 57.4 °F /  14.1 °C 30.2in /  1021.3hPa Calm   2mph /  3.2km/h 89% 0in /  0.0mm 0 W/m2
06:56 60.6 °F /  15.9 °C 57.4 °F /  14.1 °C 30.2in /  1021.3hPa SW 0.9mph /  1.4km/h 1mph /  1.6km/h 89% 0in /  0.0mm 0 W/m2
07:01 60.4 °F /  15.8 °C 57.2 °F /  14 °C 30.2in /  1021.3hPa SW 0.9mph /  1.4km/h 2mph /  3.2km/h 89% 0in /  0.0mm 0 W/m2
07:06 60.4 °F /  15.8 °C 57.2 °F /  14 °C 30.2in /  1021.3hPa Calm   1mph /  1.6km/h 89% 0in /  0.0mm 0 W/m2
07:11 60.4 °F /  15.8 °C 57.2 °F /  14 °C 30.2in /  1021.3hPa Calm   2mph /  3.2km/h 89% 0in /  0.0mm 5 W/m2
07:16 60.4 °F /  15.8 °C 57.2 °F /  14 °C 30.2in /  1021.3hPa SW 0.9mph /  1.4km/h 1mph /  1.6km/h 89% 0in /  0.0mm 7 W/m2
07:21 60.3 °F /  15.7 °C 57 °F /  13.9 °C 30.2in /  1021.3hPa Calm   2mph /  3.2km/h 89% 0in /  0.0mm 9 W/m2
07:26 60.3 °F /  15.7 °C 57 °F /  13.9 °C 30.2in /  1021.3hPa Calm   1mph /  1.6km/h 89% 0in /  0.0mm 11 W/m2
07:31 60.3 °F /  15.7 °C 57.4 °F /  14.1 °C 30.2in /  1021.3hPa Calm   2mph /  3.2km/h 90% 0in /  0.0mm 12 W/m2
07:36 60.3 °F /  15.7 °C 57.4 °F /  14.1 °C 30.2in /  1021.3hPa Calm   1mph /  1.6km/h 90% 0in /  0.0mm 16 W/m2
07:41 60.3 °F /  15.7 °C 57.4 °F /  14.1 °C 30.2in /  1021.3hPa Calm     90% 0in /  0.0mm 21 W/m2
07:46 60.4 °F /  15.8 °C 57.6 °F /  14.2 °C 30.2in /  1021.3hPa Calm   2mph /  3.2km/h 90% 0in /  0.0mm 25 W/m2
07:51 60.4 °F /  15.8 °C 57.6 °F /  14.2 °C 30.2in /  1021.7hPa Calm   1mph /  1.6km/h 90% 0in /  0.0mm 30 W/m2
07:56 60.4 °F /  15.8 °C 57.6 °F /  14.2 °C 30.2in /  1021.7hPa Calm   2mph /  3.2km/h 90% 0in /  0.0mm 39 W/m2
08:01 60.6 °F /  15.9 °C 57.4 °F /  14.1 °C 30.2in /  1021.7hPa Calm   1mph /  1.6km/h 89% 0in /  0.0mm 47 W/m2
08:06 61.2 °F /  16.2 °C 57.6 °F /  14.2 °C 30.2in /  1021.7hPa SSW 0.9mph /  1.4km/h 1mph /  1.6km/h 88% 0in /  0.0mm 58 W/m2
08:11 61.3 °F /  16.3 °C 57.7 °F /  14.3 °C 30.2in /  1021.7hPa Calm   1mph /  1.6km/h 88% 0in /  0.0mm 69 W/m2
08:16 61.5 °F /  16.4 °C 57.9 °F /  14.4 °C 30.2in /  1021.7hPa Calm     88% 0in /  0.0mm 83 W/m2
08:21 61.9 °F /  16.6 °C 58.3 °F /  14.6 °C 30.2in /  1021.7hPa Calm     88% 0in /  0.0mm 100 W/m2
08:26 62.1 °F /  16.7 °C 58.1 °F /  14.5 °C 30.2in /  1021.7hPa Calm     87% 0in /  0.0mm 97 W/m2
08:31 62.2 °F /  16.8 °C 58.3 °F /  14.6 °C 30.2in /  1021.7hPa Calm     87% 0in /  0.0mm 97 W/m2
08:36 62.4 °F /  16.9 °C 58.1 °F /  14.5 °C 30.2in /  1021.7hPa Calm     86% 0in /  0.0mm 123 W/m2
08:41 62.6 °F /  17 °C 58.1 °F /  14.5 °C 30.2in /  1021.7hPa Calm     85% 0in /  0.0mm 107 W/m2
08:47 62.8 °F /  17.1 °C 57.9 °F /  14.4 °C 30.2in /  1022.0hPa Calm     84% 0in /  0.0mm 134 W/m2
08:52 63 °F /  17.2 °C 58.1 °F /  14.5 °C 30.2in /  1022.0hPa Calm     84% 0in /  0.0mm 130 W/m2
08:57 63.1 °F /  17.3 °C 58.3 °F /  14.6 °C 30.2in /  1022.0hPa Calm   1mph /  1.6km/h 84% 0in /  0.0mm 172 W/m2
09:02 63.3 °F /  17.4 °C 58.1 °F /  14.5 °C 30.2in /  1022.0hPa SSW 0.9mph /  1.4km/h 1mph /  1.6km/h 83% 0in /  0.0mm 86 W/m2
09:07 63.7 °F /  17.6 °C 58.5 °F /  14.7 °C 30.2in /  1022.0hPa Calm     83% 0in /  0.0mm 100 W/m2
09:12 64 °F /  17.8 °C 58.5 °F /  14.7 °C 30.2in /  1022.0hPa Calm     82% 0in /  0.0mm 193 W/m2
09:17 64.4 °F /  18 °C 58.5 °F /  14.7 °C 30.2in /  1022.0hPa East 2mph /  3.2km/h 2mph /  3.2km/h 81% 0in /  0.0mm 171 W/m2
09:22 64.6 °F /  18.1 °C 58.6 °F /  14.8 °C 30.2in /  1022.0hPa Calm   1mph /  1.6km/h 81% 0in /  0.0mm 271 W/m2
09:27 64.9 °F /  18.3 °C 58.6 °F /  14.8 °C 30.2in /  1022.0hPa Calm   2mph /  3.2km/h 80% 0in /  0.0mm 202 W/m2
09:32 65.5 °F /  18.6 °C 58.8 °F /  14.9 °C 30.2in /  1022.0hPa Calm   1mph /  1.6km/h 79% 0in /  0.0mm 183 W/m2
09:37 65.7 °F /  18.7 °C 58.6 °F /  14.8 °C 30.2in /  1022.0hPa ENE 0.9mph /  1.4km/h 2mph /  3.2km/h 78% 0in /  0.0mm 283 W/m2
09:42 66 °F /  18.9 °C 59 °F /  15 °C 30.2in /  1022.0hPa ENE 0.9mph /  1.4km/h 2mph /  3.2km/h 78% 0in /  0.0mm 316 W/m2
09:47 66.2 °F /  19 °C 59.2 °F /  15.1 °C 30.2in /  1022.4hPa NNE 0.9mph /  1.4km/h 3mph /  4.8km/h 78% 0in /  0.0mm 330 W/m2
09:52 66.6 °F /  19.2 °C 59.5 °F /  15.3 °C 30.2in /  1022.4hPa East 2mph /  3.2km/h 3mph /  4.8km/h 78% 0in /  0.0mm 325 W/m2
09:57 66.9 °F /  19.4 °C 59.5 °F /  15.3 °C 30.2in /  1022.4hPa Calm   1mph /  1.6km/h 77% 0in /  0.0mm 330 W/m2
10:02 67.3 °F /  19.6 °C 59.5 °F /  15.3 °C 30.2in /  1022.4hPa Calm   1mph /  1.6km/h 76% 0in /  0.0mm 364 W/m2
10:07 67.6 °F /  19.8 °C 59.4 °F /  15.2 °C 30.2in /  1022.4hPa East 2.9mph /  4.7km/h 4mph /  6.4km/h 75% 0in /  0.0mm 367 W/m2
10:12 67.6 °F /  19.8 °C 59.4 °F /  15.2 °C 30.2in /  1022.4hPa Calm   2mph /  3.2km/h 75% 0in /  0.0mm 403 W/m2
10:17 68 °F /  20 °C 59.7 °F /  15.4 °C 30.2in /  1022.4hPa Calm   4mph /  6.4km/h 75% 0in /  0.0mm 415 W/m2
10:22 68.5 °F /  20.3 °C 59.9 °F /  15.5 °C 30.2in /  1022.4hPa NE 2mph /  3.2km/h 3mph /  4.8km/h 74% 0in /  0.0mm 383 W/m2
10:27 68.7 °F /  20.4 °C 59.7 °F /  15.4 °C 30.2in /  1022.4hPa East 2mph /  3.2km/h 3mph /  4.8km/h 73% 0in /  0.0mm 373 W/m2
10:32 69.1 °F /  20.6 °C 60.1 °F /  15.6 °C 30.2in /  1022.4hPa ESE 0.9mph /  1.4km/h 3mph /  4.8km/h 73% 0in /  0.0mm 413 W/m2
10:37 69.3 °F /  20.7 °C 59.9 °F /  15.5 °C 30.2in /  1022.4hPa Calm   1mph /  1.6km/h 72% 0in /  0.0mm 436 W/m2
10:42 69.6 °F /  20.9 °C 60.3 °F /  15.7 °C 30.2in /  1022.4hPa SE 2mph /  3.2km/h 2mph /  3.2km/h 72% 0in /  0.0mm 461 W/m2
10:47 70 °F /  21.1 °C 60.1 °F /  15.6 °C 30.2in /  1022.4hPa East 2mph /  3.2km/h 3mph /  4.8km/h 71% 0in /  0.0mm 448 W/m2
10:52 70.3 °F /  21.3 °C 60.4 °F /  15.8 °C 30.2in /  1022.4hPa Calm     71% 0in /  0.0mm 411 W/m2
10:57 70.9 °F /  21.6 °C 60.3 °F /  15.7 °C 30.2in /  1022.4hPa NE 2mph /  3.2km/h 2mph /  3.2km/h 69% 0in /  0.0mm 462 W/m2
11:02 71.2 °F /  21.8 °C 60.1 °F /  15.6 °C 30.2in /  1022.4hPa ENE 2.9mph /  4.7km/h 4mph /  6.4km/h 68% 0in /  0.0mm 485 W/m2
11:07 70.9 °F /  21.6 °C 60.3 °F /  15.7 °C 30.2in /  1022.4hPa East 2mph /  3.2km/h 4mph /  6.4km/h 69% 0in /  0.0mm 529 W/m2
11:12 71.1 °F /  21.7 °C 60.4 °F /  15.8 °C 30.2in /  1022.4hPa ESE 0.9mph /  1.4km/h 3mph /  4.8km/h 69% 0in /  0.0mm 496 W/m2
11:17 71.4 °F /  21.9 °C 60.3 °F /  15.7 °C 30.2in /  1022.4hPa SE 0.9mph /  1.4km/h 4mph /  6.4km/h 68% 0in /  0.0mm 526 W/m2
11:22 72 °F /  22.2 °C 59.9 °F /  15.5 °C 30.2in /  1022.4hPa Calm   2mph /  3.2km/h 66% 0in /  0.0mm 515 W/m2
11:27 72.1 °F /  22.3 °C 60.1 °F /  15.6 °C 30.2in /  1022.4hPa East 2mph /  3.2km/h 4mph /  6.4km/h 66% 0in /  0.0mm 446 W/m2
11:32 72.3 °F /  22.4 °C 59.9 °F /  15.5 °C 30.2in /  1022.4hPa NE 0.9mph /  1.4km/h 4mph /  6.4km/h 65% 0in /  0.0mm 564 W/m2
11:37 72.7 °F /  22.6 °C 60.6 °F /  15.9 °C 30.2in /  1022.4hPa East 2.9mph /  4.7km/h 5mph /  8km/h 66% 0in /  0.0mm 540 W/m2
11:42 72.9 °F /  22.7 °C 60.8 °F /  16 °C 30.2in /  1022.4hPa NNE 2.9mph /  4.7km/h 3mph /  4.8km/h 66% 0in /  0.0mm 561 W/m2
11:47 73 °F /  22.8 °C 60.6 °F /  15.9 °C 30.2in /  1022.4hPa ENE 2mph /  3.2km/h 2mph /  3.2km/h 65% 0in /  0.0mm 494 W/m2
11:52 73.2 °F /  22.9 °C 61.2 °F /  16.2 °C 30.2in /  1022.0hPa North 2.9mph /  4.7km/h 3mph /  4.8km/h 66% 0in /  0.0mm 527 W/m2
11:57 73.6 °F /  23.1 °C 60.6 °F /  15.9 °C 30.2in /  1022.0hPa ESE 0.9mph /  1.4km/h 4mph /  6.4km/h 64% 0in /  0.0mm 573 W/m2
12:02 73.8 °F /  23.2 °C 60.8 °F /  16 °C 30.2in /  1022.0hPa Calm   3mph /  4.8km/h 64% 0in /  0.0mm 573 W/m2
12:07 73.9 °F /  23.3 °C 61 °F /  16.1 °C 30.2in /  1022.0hPa ENE 0.9mph /  1.4km/h 2mph /  3.2km/h 64% 0in /  0.0mm 608 W/m2
12:12 74.5 °F /  23.6 °C 60.6 °F /  15.9 °C 30.2in /  1022.0hPa North 4mph /  6.4km/h 5mph /  8km/h 62% 0in /  0.0mm 571 W/m2
12:17 74.7 °F /  23.7 °C 60.8 °F /  16 °C 30.2in /  1022.0hPa NE 2mph /  3.2km/h 6mph /  9.7km/h 62% 0in /  0.0mm 529 W/m2
12:22 74.7 °F /  23.7 °C 60.8 °F /  16 °C 30.2in /  1022.0hPa Calm   4mph /  6.4km/h 62% 0in /  0.0mm 594 W/m2
12:27 75 °F /  23.9 °C 62.1 °F /  16.7 °C 30.2in /  1022.0hPa ENE 4mph /  6.4km/h 6mph /  9.7km/h 64% 0in /  0.0mm 578 W/m2
12:32 75.6 °F /  24.2 °C 61.2 °F /  16.2 °C 30.2in /  1021.7hPa West 2mph /  3.2km/h 4mph /  6.4km/h 61% 0in /  0.0mm 671 W/m2
12:37 75.6 °F /  24.2 °C 61.2 °F /  16.2 °C 30.2in /  1021.7hPa NNE 2mph /  3.2km/h 7mph /  11.3km/h 61% 0in /  0.0mm 671 W/m2
12:42 75.9 °F /  24.4 °C 61 °F /  16.1 °C 30.2in /  1021.7hPa ESE 2mph /  3.2km/h 4mph /  6.4km/h 60% 0in /  0.0mm 691 W/m2
12:47 76.6 °F /  24.8 °C 62.2 °F /  16.8 °C 30.2in /  1021.7hPa East 2mph /  3.2km/h 6mph /  9.7km/h 61% 0in /  0.0mm 570 W/m2
12:52 77.2 °F /  25.1 °C 62.2 °F /  16.8 °C 30.2in /  1021.7hPa SE 0.9mph /  1.4km/h 2mph /  3.2km/h 60% 0in /  0.0mm 545 W/m2
12:57 77.5 °F /  25.3 °C 62.1 °F /  16.7 °C 30.2in /  1021.7hPa East 0.9mph /  1.4km/h 1mph /  1.6km/h 59% 0in /  0.0mm 543 W/m2
13:02 78.1 °F /  25.6 °C 62.6 °F /  17 °C 30.2in /  1021.3hPa Calm   3mph /  4.8km/h 59% 0in /  0.0mm 608 W/m2
13:08 78.4 °F /  25.8 °C 62.4 °F /  16.9 °C 30.2in /  1021.3hPa ESE 0.9mph /  1.4km/h 3mph /  4.8km/h 58% 0in /  0.0mm 564 W/m2
13:13 78.6 °F /  25.9 °C 62.1 °F /  16.7 °C 30.2in /  1021.3hPa NE 0.9mph /  1.4km/h 4mph /  6.4km/h 57% 0in /  0.0mm 666 W/m2
13:18 78.8 °F /  26 °C 62.2 °F /  16.8 °C 30.2in /  1021.3hPa Calm     57% 0in /  0.0mm 668 W/m2
13:23 79.2 °F /  26.2 °C 62.1 °F /  16.7 °C 30.2in /  1021.3hPa Calm   4mph /  6.4km/h 56% 0in /  0.0mm 580 W/m2
13:28 79.3 °F /  26.3 °C 61.2 °F /  16.2 °C 30.2in /  1021.0hPa ESE 2.9mph /  4.7km/h 3mph /  4.8km/h 54% 0in /  0.0mm 686 W/m2
13:33 79.2 °F /  26.2 °C 60.6 °F /  15.9 °C 30.2in /  1021.0hPa East 4mph /  6.4km/h 6mph /  9.7km/h 53% 0in /  0.0mm 663 W/m2
13:38 79.2 °F /  26.2 °C 61.5 °F /  16.4 °C 30.2in /  1021.0hPa NNW 2mph /  3.2km/h 2mph /  3.2km/h 55% 0in /  0.0mm 649 W/m2
13:43 79.5 °F /  26.4 °C 62.4 °F /  16.9 °C 30.2in /  1021.0hPa North 0.9mph /  1.4km/h 4mph /  6.4km/h 56% 0in /  0.0mm 580 W/m2
13:48 79.5 °F /  26.4 °C 61.3 °F /  16.3 °C 30.2in /  1021.0hPa NE 4mph /  6.4km/h 4mph /  6.4km/h 54% 0in /  0.0mm 689 W/m2
13:53 79.9 °F /  26.6 °C 60.6 °F /  15.9 °C 30.2in /  1021.0hPa ENE 2.9mph /  4.7km/h 6mph /  9.7km/h 52% 0in /  0.0mm 596 W/m2
13:58 79.9 °F /  26.6 °C 59 °F /  15 °C 30.2in /  1021.0hPa SE 4mph /  6.4km/h 10mph /  16.1km/h 49% 0in /  0.0mm 663 W/m2
14:03 79.9 °F /  26.6 °C 58.5 °F /  14.7 °C 30.1in /  1020.7hPa East 6mph /  9.7km/h 7mph /  11.3km/h 48% 0in /  0.0mm 673 W/m2
14:08 80.2 °F /  26.8 °C 58.1 °F /  14.5 °C 30.1in /  1020.7hPa SE 2mph /  3.2km/h 10mph /  16.1km/h 47% 0in /  0.0mm 664 W/m2
14:13 80.6 °F /  27 °C 58.5 °F /  14.7 °C 30.1in /  1020.7hPa Calm   7mph /  11.3km/h 47% 0in /  0.0mm 714 W/m2
14:18 81 °F /  27.2 °C 60.1 °F /  15.6 °C 30.1in /  1020.7hPa East 0.9mph /  1.4km/h 8mph /  12.9km/h 49% 0in /  0.0mm 737 W/m2
14:23 81.3 °F /  27.4 °C 57.9 °F /  14.4 °C 30.1in /  1020.7hPa ENE 4mph /  6.4km/h 6mph /  9.7km/h 45% 0in /  0.0mm 717 W/m2
14:28 81.5 °F /  27.5 °C 58.1 °F /  14.5 °C 30.1in /  1020.7hPa ENE 0.9mph /  1.4km/h 4mph /  6.4km/h 45% 0in /  0.0mm 429 W/m2
14:33 81.1 °F /  27.3 °C 59 °F /  15 °C 30.1in /  1020.7hPa SE 2.9mph /  4.7km/h 4mph /  6.4km/h 47% 0in /  0.0mm 411 W/m2
14:38 80.6 °F /  27 °C 56.1 °F /  13.4 °C 30.1in /  1020.7hPa NNE 0.9mph /  1.4km/h 3mph /  4.8km/h 43% 0in /  0.0mm 664 W/m2
14:43 80.8 °F /  27.1 °C 57.4 °F /  14.1 °C 30.1in /  1020.7hPa ENE 2.9mph /  4.7km/h 7mph /  11.3km/h 45% 0in /  0.0mm 714 W/m2
14:48 81.3 °F /  27.4 °C 57.4 °F /  14.1 °C 30.1in /  1020.7hPa Calm   6mph /  9.7km/h 44% 0in /  0.0mm 654 W/m2
14:53 81.5 °F /  27.5 °C 58.6 °F /  14.8 °C 30.1in /  1020.3hPa East 0.9mph /  1.4km/h 7mph /  11.3km/h 46% 0in /  0.0mm 186 W/m2
14:58 81.1 °F /  27.3 °C 57.7 °F /  14.3 °C 30.1in /  1020.3hPa East 2mph /  3.2km/h 2mph /  3.2km/h 45% 0in /  0.0mm 605 W/m2
15:03 81 °F /  27.2 °C 57.6 °F /  14.2 °C 30.1in /  1020.3hPa NE 0.9mph /  1.4km/h 7mph /  11.3km/h 45% 0in /  0.0mm 642 W/m2
15:08 81.1 °F /  27.3 °C 57.2 °F /  14 °C 30.1in /  1020.3hPa East 2.9mph /  4.7km/h 4mph /  6.4km/h 44% 0in /  0.0mm 628 W/m2
15:13 81.5 °F /  27.5 °C 58.1 °F /  14.5 °C 30.1in /  1020.3hPa NE 0.9mph /  1.4km/h 5mph /  8km/h 45% 0in /  0.0mm 619 W/m2
15:18 81.7 °F /  27.6 °C 57.6 °F /  14.2 °C 30.1in /  1020.3hPa NNW 0.9mph /  1.4km/h 4mph /  6.4km/h 44% 0in /  0.0mm 622 W/m2
15:23 81.7 °F /  27.6 °C 56.3 °F /  13.5 °C 30.1in /  1020.3hPa North 0.9mph /  1.4km/h 6mph /  9.7km/h 42% 0in /  0.0mm 605 W/m2
15:28 82 °F /  27.8 °C 55.9 °F /  13.3 °C 30.1in /  1020.0hPa ENE 2mph /  3.2km/h 5mph /  8km/h 41% 0in /  0.0mm 554 W/m2
15:33 82 °F /  27.8 °C 57.4 °F /  14.1 °C 30.1in /  1020.0hPa East 4mph /  6.4km/h 4mph /  6.4km/h 43% 0in /  0.0mm 534 W/m2
15:38 81.9 °F /  27.7 °C 57.2 °F /  14 °C 30.1in /  1020.0hPa South 0.9mph /  1.4km/h 3mph /  4.8km/h 43% 0in /  0.0mm 520 W/m2
15:43 81.7 °F /  27.6 °C 55.8 °F /  13.2 °C 30.1in /  1020.0hPa ESE 0.9mph /  1.4km/h 5mph /  8km/h 41% 0in /  0.0mm 568 W/m2
15:48 81.5 °F /  27.5 °C 56.1 °F /  13.4 °C 30.1in /  1020.0hPa ENE 4.9mph /  7.9km/h 7mph /  11.3km/h 42% 0in /  0.0mm 548 W/m2
15:53 81.5 °F /  27.5 °C 58.1 °F /  14.5 °C 30.1in /  1019.6hPa ENE 4.9mph /  7.9km/h 5mph /  8km/h 45% 0in /  0.0mm 589 W/m2
15:58 81.9 °F /  27.7 °C 57.2 °F /  14 °C 30.1in /  1019.6hPa East 0.9mph /  1.4km/h 7mph /  11.3km/h 43% 0in /  0.0mm 575 W/m2
16:03 82 °F /  27.8 °C 57.9 °F /  14.4 °C 30.1in /  1019.6hPa Calm   3mph /  4.8km/h 44% 0in /  0.0mm 550 W/m2
16:08 82.2 °F /  27.9 °C 58.1 °F /  14.5 °C 30.1in /  1019.6hPa ESE 0.9mph /  1.4km/h 3mph /  4.8km/h 44% 0in /  0.0mm 557 W/m2
16:13 82.6 °F /  28.1 °C 57.2 °F /  14 °C 30.1in /  1019.6hPa Calm   4mph /  6.4km/h 42% 0in /  0.0mm 538 W/m2
16:18 82.4 °F /  28 °C 57 °F /  13.9 °C 30.1in /  1019.6hPa Calm   3mph /  4.8km/h 42% 0in /  0.0mm 540 W/m2
16:23 82.4 °F /  28 °C 58.3 °F /  14.6 °C 30.1in /  1019.6hPa SSW 0.9mph /  1.4km/h 3mph /  4.8km/h 44% 0in /  0.0mm 468 W/m2
16:28 82.4 °F /  28 °C 58.3 °F /  14.6 °C 30.1in /  1019.6hPa Calm   6mph /  9.7km/h 44% 0in /  0.0mm 496 W/m2
16:33 82.2 °F /  27.9 °C 58.1 °F /  14.5 °C 30.1in /  1019.6hPa ESE 2mph /  3.2km/h 4mph /  6.4km/h 44% 0in /  0.0mm 515 W/m2
16:38 82 °F /  27.8 °C 57.9 °F /  14.4 °C 30.1in /  1019.6hPa SSE 0.9mph /  1.4km/h 5mph /  8km/h 44% 0in /  0.0mm 510 W/m2
16:43 82 °F /  27.8 °C 57.9 °F /  14.4 °C 30.1in /  1019.3hPa ESE 4mph /  6.4km/h 4mph /  6.4km/h 44% 0in /  0.0mm 501 W/m2
16:48 82 °F /  27.8 °C 57.9 °F /  14.4 °C 30.1in /  1019.3hPa East 2mph /  3.2km/h 4mph /  6.4km/h 44% 0in /  0.0mm 483 W/m2
16:53 82 °F /  27.8 °C 57.4 °F /  14.1 °C 30.1in /  1019.3hPa SE 0.9mph /  1.4km/h 3mph /  4.8km/h 43% 0in /  0.0mm 469 W/m2
16:58 81.9 °F /  27.7 °C 57.2 °F /  14 °C 30.1in /  1019.3hPa NE 2mph /  3.2km/h 5mph /  8km/h 43% 0in /  0.0mm 441 W/m2
17:03 82 °F /  27.8 °C 57.4 °F /  14.1 °C 30.1in /  1019.3hPa SE 0.9mph /  1.4km/h 2mph /  3.2km/h 43% 0in /  0.0mm 436 W/m2
17:08 82.2 °F /  27.9 °C 58.1 °F /  14.5 °C 30.1in /  1019.3hPa NE 0.9mph /  1.4km/h 5mph /  8km/h 44% 0in /  0.0mm 439 W/m2
17:13 82.6 °F /  28.1 °C 57.7 °F /  14.3 °C 30.1in /  1019.0hPa East 2mph /  3.2km/h 3mph /  4.8km/h 43% 0in /  0.0mm 432 W/m2
17:18 82.6 °F /  28.1 °C 58.5 °F /  14.7 °C 30.1in /  1019.0hPa Calm   1mph /  1.6km/h 44% 0in /  0.0mm 396 W/m2
17:23 82.2 °F /  27.9 °C 58.1 °F /  14.5 °C 30.1in /  1019.0hPa East 0.9mph /  1.4km/h 2mph /  3.2km/h 44% 0in /  0.0mm 373 W/m2
17:28 82 °F /  27.8 °C 58.6 °F /  14.8 °C 30.1in /  1019.0hPa ESE 2mph /  3.2km/h 3mph /  4.8km/h 45% 0in /  0.0mm 388 W/m2
17:33 81.9 °F /  27.7 °C 57.2 °F /  14 °C 30.1in /  1019.0hPa ENE 0.9mph /  1.4km/h 6mph /  9.7km/h 43% 0in /  0.0mm 287 W/m2
17:38 81.9 °F /  27.7 °C 58.5 °F /  14.7 °C 30.1in /  1019.0hPa ENE 2mph /  3.2km/h 4mph /  6.4km/h 45% 0in /  0.0mm 343 W/m2
17:43 81.5 °F /  27.5 °C 58.1 °F /  14.5 °C 30.1in /  1019.0hPa Calm   6mph /  9.7km/h 45% 0in /  0.0mm 332 W/m2
17:48 81.5 °F /  27.5 °C 59.4 °F /  15.2 °C 30.1in /  1019.0hPa SSE 2mph /  3.2km/h 2mph /  3.2km/h 47% 0in /  0.0mm 318 W/m2
17:53 81.5 °F /  27.5 °C 58.1 °F /  14.5 °C 30.1in /  1019.0hPa SE 0.9mph /  1.4km/h 3mph /  4.8km/h 45% 0in /  0.0mm 304 W/m2
17:58 81.7 °F /  27.6 °C 59.5 °F /  15.3 °C 30.1in /  1019.0hPa West 2mph /  3.2km/h 3mph /  4.8km/h 47% 0in /  0.0mm 299 W/m2
18:03 81.3 °F /  27.4 °C 57.9 °F /  14.4 °C 30.1in /  1019.0hPa East 0.9mph /  1.4km/h 1mph /  1.6km/h 45% 0in /  0.0mm 292 W/m2
18:08 81.3 °F /  27.4 °C 59.7 °F /  15.4 °C 30.1in /  1019.0hPa ESE 0.9mph /  1.4km/h 3mph /  4.8km/h 48% 0in /  0.0mm 272 W/m2
18:13 81.3 °F /  27.4 °C 59.2 °F /  15.1 °C 30.1in /  1019.0hPa SE 0.9mph /  1.4km/h 2mph /  3.2km/h 47% 0in /  0.0mm 264 W/m2
18:18 81.3 °F /  27.4 °C 59.7 °F /  15.4 °C 30.1in /  1019.0hPa Calm   2mph /  3.2km/h 48% 0in /  0.0mm 241 W/m2
18:23 81.1 °F /  27.3 °C 59 °F /  15 °C 30.1in /  1019.0hPa Calm   1mph /  1.6km/h 47% 0in /  0.0mm 220 W/m2
18:28 81 °F /  27.2 °C 59.4 °F /  15.2 °C 30.1in /  1018.6hPa South 0.9mph /  1.4km/h 3mph /  4.8km/h 48% 0in /  0.0mm 221 W/m2
18:33 80.8 °F /  27.1 °C 58.1 °F /  14.5 °C 30.1in /  1019.0hPa ENE 0.9mph /  1.4km/h 6mph /  9.7km/h 46% 0in /  0.0mm 209 W/m2
18:38 80.4 °F /  26.9 °C 59.5 °F /  15.3 °C 30.1in /  1018.6hPa Calm   1mph /  1.6km/h 49% 0in /  0.0mm 195 W/m2
18:43 80.1 °F /  26.7 °C 59.2 °F /  15.1 °C 30.1in /  1018.6hPa SSE 0.9mph /  1.4km/h 6mph /  9.7km/h 49% 0in /  0.0mm 181 W/m2
18:48 79.7 °F /  26.5 °C 59.4 °F /  15.2 °C 30.1in /  1018.6hPa SSW 0.9mph /  1.4km/h 2mph /  3.2km/h 50% 0in /  0.0mm 171 W/m2
18:53 79.3 °F /  26.3 °C 59 °F /  15 °C 30.1in /  1018.6hPa SSW 0.9mph /  1.4km/h 1mph /  1.6km/h 50% 0in /  0.0mm 163 W/m2
18:58 78.8 °F /  26 °C 59.7 °F /  15.4 °C 30.1in /  1018.3hPa Calm   1mph /  1.6km/h 52% 0in /  0.0mm 144 W/m2
19:03 78.3 °F /  25.7 °C 59.7 °F /  15.4 °C 30.1in /  1018.3hPa SSW 2mph /  3.2km/h 2mph /  3.2km/h 53% 0in /  0.0mm 130 W/m2
19:08 77.7 °F /  25.4 °C 59.2 °F /  15.1 °C 30.1in /  1018.3hPa Calm   2mph /  3.2km/h 53% 0in /  0.0mm 114 W/m2
19:13 77.2 °F /  25.1 °C 57.7 °F /  14.3 °C 30.1in /  1018.3hPa ESE 0.9mph /  1.4km/h 6mph /  9.7km/h 51% 0in /  0.0mm 95 W/m2
19:18 76.6 °F /  24.8 °C 59.2 °F /  15.1 °C 30.1in /  1018.3hPa ESE 0.9mph /  1.4km/h 1mph /  1.6km/h 55% 0in /  0.0mm 69 W/m2
19:23 76.1 °F /  24.5 °C 59.2 °F /  15.1 °C 30.1in /  1018.3hPa SE 0.9mph /  1.4km/h 4mph /  6.4km/h 56% 0in /  0.0mm 40 W/m2
19:28 75.6 °F /  24.2 °C 59.2 °F /  15.1 °C 30.1in /  1018.3hPa Calm   1mph /  1.6km/h 57% 0in /  0.0mm 37 W/m2
19:33 75 °F /  23.9 °C 59.2 °F /  15.1 °C 30.1in /  1018.3hPa Calm     58% 0in /  0.0mm 33 W/m2
19:38 74.7 °F /  23.7 °C 59.4 °F /  15.2 °C 30.1in /  1018.3hPa SE 0.9mph /  1.4km/h 2mph /  3.2km/h 59% 0in /  0.0mm 30 W/m2
19:43 74.1 °F /  23.4 °C 58.8 °F /  14.9 °C 30.1in /  1018.3hPa SE 2mph /  3.2km/h 2mph /  3.2km/h 59% 0in /  0.0mm 28 W/m2
19:48 73.9 °F /  23.3 °C 59.2 °F /  15.1 °C 30.1in /  1018.3hPa SE 0.9mph /  1.4km/h 2mph /  3.2km/h 60% 0in /  0.0mm 23 W/m2
19:53 73.6 °F /  23.1 °C 59.4 °F /  15.2 °C 30.1in /  1018.3hPa SE 2mph /  3.2km/h 2mph /  3.2km/h 61% 0in /  0.0mm 19 W/m2
19:58 72.9 °F /  22.7 °C 59 °F /  15 °C 30.1in /  1018.3hPa SE 0.9mph /  1.4km/h 2mph /  3.2km/h 62% 0in /  0.0mm 14 W/m2
20:03 72.3 °F /  22.4 °C 58.6 °F /  14.8 °C 30.1in /  1018.3hPa SE 0.9mph /  1.4km/h 2mph /  3.2km/h 62% 0in /  0.0mm 11 W/m2
20:08 71.8 °F /  22.1 °C 59 °F /  15 °C 30.1in /  1018.3hPa Calm   2mph /  3.2km/h 64% 0in /  0.0mm 5 W/m2
20:13 71.4 °F /  21.9 °C 59 °F /  15 °C 30.1in /  1018.3hPa SE 0.9mph /  1.4km/h 2mph /  3.2km/h 65% 0in /  0.0mm 5 W/m2
20:18 71.1 °F /  21.7 °C 58.6 °F /  14.8 °C 30.1in /  1018.3hPa SE 2mph /  3.2km/h 2mph /  3.2km/h 65% 0in /  0.0mm 5 W/m2
20:23 70.7 °F /  21.5 °C 58.8 °F /  14.9 °C 30.1in /  1018.3hPa SE 0.9mph /  1.4km/h 2mph /  3.2km/h 66% 0in /  0.0mm 0 W/m2
20:28 70.3 °F /  21.3 °C 58.8 °F /  14.9 °C 30.1in /  1018.3hPa SE 0.9mph /  1.4km/h 2mph /  3.2km/h 67% 0in /  0.0mm 0 W/m2
20:33 70 °F /  21.1 °C 58.5 °F /  14.7 °C 30.1in /  1018.6hPa SE 0.9mph /  1.4km/h 2mph /  3.2km/h 67% 0in /  0.0mm 0 W/m2
20:38 69.6 °F /  20.9 °C 58.6 °F /  14.8 °C 30.1in /  1018.6hPa SE 0.9mph /  1.4km/h 1mph /  1.6km/h 68% 0in /  0.0mm 0 W/m2
20:43 69.4 °F /  20.8 °C 58.5 °F /  14.7 °C 30.1in /  1018.6hPa Calm   1mph /  1.6km/h 68% 0in /  0.0mm 0 W/m2
20:48 69.1 °F /  20.6 °C 58.5 °F /  14.7 °C 30.1in /  1018.6hPa SE 0.9mph /  1.4km/h 1mph /  1.6km/h 69% 0in /  0.0mm 0 W/m2
20:53 68.7 °F /  20.4 °C 58.1 °F /  14.5 °C 30.1in /  1018.6hPa SE 0.9mph /  1.4km/h 1mph /  1.6km/h 69% 0in /  0.0mm 0 W/m2
20:58 68.5 °F /  20.3 °C 58.3 °F /  14.6 °C 30.1in /  1018.6hPa SE 0.9mph /  1.4km/h 1mph /  1.6km/h 70% 0in /  0.0mm 0 W/m2
21:03 68.2 °F /  20.1 °C 58.5 °F /  14.7 °C 30.1in /  1018.6hPa SE 0.9mph /  1.4km/h   71% 0in /  0.0mm 0 W/m2
21:08 67.8 °F /  19.9 °C 58.1 °F /  14.5 °C 30.1in /  1018.6hPa SE 0.9mph /  1.4km/h   71% 0in /  0.0mm 0 W/m2
21:13 67.6 °F /  19.8 °C 58.3 °F /  14.6 °C 30.1in /  1018.6hPa Calm     72% 0in /  0.0mm 0 W/m2
21:19 67.5 °F /  19.7 °C 58.5 °F /  14.7 °C 30.1in /  1018.6hPa Calm     73% 0in /  0.0mm 0 W/m2
21:24 67.3 °F /  19.6 °C 58.3 °F /  14.6 °C 30.1in /  1018.6hPa Calm     73% 0in /  0.0mm 0 W/m2
21:29 66.9 °F /  19.4 °C 57.9 °F /  14.4 °C 30.1in /  1018.6hPa Calm     73% 0in /  0.0mm 0 W/m2
21:34 66.9 °F /  19.4 °C 57.9 °F /  14.4 °C 30.1in /  1018.6hPa Calm     73% 0in /  0.0mm 0 W/m2
21:39 66.6 °F /  19.2 °C 58.1 °F /  14.5 °C 30.1in /  1018.6hPa Calm     74% 0in /  0.0mm 0 W/m2
21:44 66.6 °F /  19.2 °C 58.5 °F /  14.7 °C 30.1in /  1018.6hPa Calm   2mph /  3.2km/h 75% 0in /  0.0mm 0 W/m2
21:49 66.2 °F /  19 °C 58.1 °F /  14.5 °C 30.1in /  1018.6hPa Calm     75% 0in /  0.0mm 0 W/m2
21:54 66 °F /  18.9 °C 57.9 °F /  14.4 °C 30.1in /  1018.6hPa Calm   2mph /  3.2km/h 75% 0in /  0.0mm 0 W/m2
21:59 65.8 °F /  18.8 °C 58.1 °F /  14.5 °C 30.1in /  1018.6hPa Calm     76% 0in /  0.0mm 0 W/m2
22:04 65.8 °F /  18.8 °C 58.1 °F /  14.5 °C 30.1in /  1018.6hPa Calm     76% 0in /  0.0mm 0 W/m2
22:09 65.7 °F /  18.7 °C 58.3 °F /  14.6 °C 30.1in /  1018.6hPa Calm     77% 0in /  0.0mm 0 W/m2
22:14 65.5 °F /  18.6 °C 58.1 °F /  14.5 °C 30.1in /  1018.6hPa Calm     77% 0in /  0.0mm 0 W/m2
22:19 65.3 °F /  18.5 °C 57.9 °F /  14.4 °C 30.1in /  1018.6hPa Calm     77% 0in /  0.0mm 0 W/m2
22:24 64.9 °F /  18.3 °C 57.6 °F /  14.2 °C 30.1in /  1018.6hPa Calm     77% 0in /  0.0mm 0 W/m2
22:29 64.9 °F /  18.3 °C 57.9 °F /  14.4 °C 30.1in /  1018.6hPa Calm     78% 0in /  0.0mm 0 W/m2
22:34 64.8 °F /  18.2 °C 57.4 °F /  14.1 °C 30.1in /  1018.6hPa Calm     77% 0in /  0.0mm 0 W/m2
22:39 64.6 °F /  18.1 °C 57.6 °F /  14.2 °C 30.1in /  1018.6hPa Calm     78% 0in /  0.0mm 0 W/m2
22:44 64.6 °F /  18.1 °C 57.6 °F /  14.2 °C 30.1in /  1018.6hPa Calm     78% 0in /  0.0mm 0 W/m2
22:49 64.2 °F /  17.9 °C 57.2 °F /  14 °C 30.1in /  1018.6hPa Calm     78% 0in /  0.0mm 0 W/m2
22:54 64 °F /  17.8 °C 57.4 °F /  14.1 °C 30.1in /  1018.6hPa Calm     79% 0in /  0.0mm 0 W/m2
22:59 64 °F /  17.8 °C 57.4 °F /  14.1 °C 30.1in /  1018.6hPa Calm     79% 0in /  0.0mm 0 W/m2
23:04 63.9 °F /  17.7 °C 57.2 °F /  14 °C 30.1in /  1018.6hPa Calm     79% 0in /  0.0mm 0 W/m2
23:09 63.7 °F /  17.6 °C 57 °F /  13.9 °C 30.1in /  1018.6hPa Calm     79% 0in /  0.0mm 0 W/m2
23:14 63.5 °F /  17.5 °C 57.2 °F /  14 °C 30.1in /  1018.6hPa Calm     80% 0in /  0.0mm 0 W/m2
23:19 63.3 °F /  17.4 °C 57 °F /  13.9 °C 30.1in /  1018.6hPa Calm     80% 0in /  0.0mm 0 W/m2
23:24 63.3 °F /  17.4 °C 57 °F /  13.9 °C 30.1in /  1018.3hPa Calm     80% 0in /  0.0mm 0 W/m2
23:29 63.1 °F /  17.3 °C 56.8 °F /  13.8 °C 30.1in /  1018.3hPa Calm     80% 0in /  0.0mm 0 W/m2
23:34 63.1 °F /  17.3 °C 57.2 °F /  14 °C 30.1in /  1018.3hPa Calm     81% 0in /  0.0mm 0 W/m2
23:39 63.1 °F /  17.3 °C 57.2 °F /  14 °C 30.1in /  1018.3hPa Calm     81% 0in /  0.0mm 0 W/m2
23:44 63.1 °F /  17.3 °C 57.2 °F /  14 °C 30.1in /  1018.3hPa Calm     81% 0in /  0.0mm 0 W/m2
23:49 63 °F /  17.2 °C 57 °F /  13.9 °C 30.1in /  1018.3hPa Calm     81% 0in /  0.0mm 0 W/m2
23:54 63 °F /  17.2 °C 57 °F /  13.9 °C 30.1in /  1018.3hPa Calm     81% 0in /  0.0mm 0 W/m2
23:59 62.8 °F /  17.1 °C 56.8 °F /  13.8 °C 30.1in /  1018.3hPa Calm     81% 0in /  0.0mm 0 W/m2
Juneau County Weather
Compliments of Weather Underground - 2 mb